Tropical Cyclones
[Index]
Season 2017-2018 Tropical Cyclone JOSIE Track Map
Season 2017-2018 Summaries: [BoM-AU] [JTWC-AU] [JTWC-SIO] [JTWC-SPAC] [JTWC-SH]
<<- Previous TC | JTWC 2017-2018 Season | Next TC ->>

click for intensity scale information  Lat/long Grid: Show Hide

 Date Labels: Show Hide

Joint Typhoon Warning Centre Cyclone Data

Name: JOSIE

30 Mar 2018 06:00 UTC to 04 Apr 2018 12:00 UTC

    date/time    lat    long     hPa   cat  kts
2018-03-30 06   18.4   171.7    1007         20          
2018-03-30 12   18.1   172.2    1003         30          
2018-03-30 18   17.8   172.9    1003         30          
2018-03-31 00   17.6   173.9    1000         35          
2018-03-31 06   17.8   174.8     998    1    40          
2018-03-31 12   18.6   176.0     996    1    45          
2018-03-31 18   19.1   176.5     994    1    50          
2018-04-01 00   19.5   176.9     997    1    45          
2018-04-01 06   19.7   177.2     998    1    40          
2018-04-01 12   19.8   177.3     998    1    40          
2018-04-01 18   19.9   177.7     998    1    40          
2018-04-02 00   20.5   178.1    1000         35          
2018-04-02 06   21.1   178.3    1000         35          
2018-04-02 12   21.3   178.4    1000         35          
2018-04-02 18   21.4   178.6    1000         35          
2018-04-03 00   21.7   179.2    1002         30          
2018-04-03 06   22.0   179.7    1004         25          
2018-04-03 12   22.6   179.7W   1004         25          
2018-04-03 18   22.8   179.1W   1004         25          
2018-04-04 00   23.3   178.4W   1006         20          
2018-04-04 06   24.0   177.9W   1005         20          
2018-04-04 12   24.3   178.2W   1005         20          
Winds are 1-min average.

Tropical cyclone tracks developed by Michael Bath using data from the Joint Typhoon Warning Centre Best Tracks and Google Maps.


Document: tropical_cyclone_josie.htm
Updated: 17 June 2020
[Australian Severe Weather index] [Copyright Notice] [Email Contacts] [Search This Site] [Privacy Policy]


Main Index Home Page Stock Weather Photos Extreme Storms Discussion Storm News and Storm Chasing Reports Tropical Cyclones / Hurricanes / Typhoons Weather Data and Links Wild Fires / Bushfires Weather Observation Techniques Weather Picture Catalogue Tornado Pictures and Reports Stock Video Footage and DVDs for sale